Time;durP1;ratioP1;P1;durP2;ratioP2;P2;SDS_P1;SDS_P2;PMS_P1;PMS_P2;Temp;Humidity;BMP_temperature;BMP_pressure;BME280_temperature;BME280_humidity;BME280_pressure;Samples;Min_cycle;Max_cycle;Signal;HPM_P1;HPM_P2
2023/08/06 00:01:15;;;;;;;2.35;1.10;;;16.60;99.90;;;;;;4023997;29;20194;-91
2023/08/06 00:03:15;;;;;;;3.85;1.23;;;16.60;99.90;;;;;;4039601;29;20623;-92
2023/08/06 00:05:21;;;;;;;4.03;1.20;;;16.60;99.90;;;;;;4024069;29;20538;-91
2023/08/06 00:07:21;;;;;;;1.45;0.88;;;16.60;99.90;;;;;;4024207;29;20217;-91
2023/08/06 00:09:22;;;;;;;2.00;1.10;;;16.70;99.90;;;;;;4039308;29;20205;-90
2023/08/06 00:11:23;;;;;;;1.80;1.38;;;16.60;99.90;;;;;;4023758;29;20277;-90
2023/08/06 00:13:24;;;;;;;2.35;1.45;;;16.80;99.90;;;;;;4039577;29;20205;-90
2023/08/06 00:15:24;;;;;;;2.72;1.80;;;17.00;99.90;;;;;;4024118;29;20202;-92
2023/08/06 00:17:25;;;;;;;6.00;1.88;;;16.90;99.90;;;;;;4039518;29;20211;-92
2023/08/06 00:19:26;;;;;;;4.15;1.98;;;16.80;99.90;;;;;;4024135;29;20214;-91
2023/08/06 00:21:27;;;;;;;5.78;2.20;;;16.90;99.90;;;;;;4039626;29;20186;-91
2023/08/06 00:23:27;;;;;;;5.25;2.22;;;16.90;99.90;;;;;;4023824;29;20540;-91
2023/08/06 00:25:28;;;;;;;4.95;2.08;;;16.90;99.90;;;;;;4039485;29;20185;-91
2023/08/06 00:27:29;;;;;;;4.30;2.80;;;16.90;99.90;;;;;;4024013;29;20644;-91
2023/08/06 00:29:30;;;;;;;4.05;2.20;;;16.80;99.90;;;;;;4039008;29;20217;-91
2023/08/06 00:31:31;;;;;;;4.53;2.45;;;16.70;99.90;;;;;;4023911;29;20194;-92
2023/08/06 00:33:31;;;;;;;6.18;2.30;;;16.60;99.90;;;;;;4023748;29;20232;-92
2023/08/06 00:35:32;;;;;;;3.83;2.17;;;16.70;99.90;;;;;;4054442;29;20189;-91
2023/08/06 00:37:33;;;;;;;4.97;2.72;;;16.60;99.90;;;;;;4038997;29;20182;-90
2023/08/06 00:39:34;;;;;;;4.35;2.13;;;16.70;99.90;;;;;;4039054;29;20296;-90
2023/08/06 00:41:34;;;;;;;3.28;2.33;;;16.80;99.90;;;;;;4023453;29;20186;-91
2023/08/06 00:43:35;;;;;;;5.43;2.50;;;16.90;99.90;;;;;;4023800;29;20731;-90
2023/08/06 00:45:37;;;;;;;5.53;2.65;;;16.70;99.90;;;;;;4054298;29;20181;-92
2023/08/06 00:47:39;;;;;;;7.82;3.17;;;17.00;99.90;;;;;;4038872;29;20194;-91
2023/08/06 00:49:40;;;;;;;5.07;3.08;;;16.90;99.90;;;;;;4038593;29;20225;-91
2023/08/06 00:51:42;;;;;;;5.13;2.78;;;16.90;99.90;;;;;;4039085;29;20289;-92
2023/08/06 00:53:43;;;;;;;5.70;2.65;;;16.80;99.90;;;;;;4038872;29;20177;-89
2023/08/06 00:55:45;;;;;;;5.75;2.50;;;16.70;99.90;;;;;;4039124;29;20221;-90
2023/08/06 00:57:46;;;;;;;7.50;2.85;;;16.70;99.90;;;;;;4038998;29;20185;-91
2023/08/06 00:59:47;;;;;;;5.20;3.22;;;16.60;99.90;;;;;;4023564;29;20588;-93
2023/08/06 01:01:50;;;;;;;6.65;3.30;;;16.50;99.90;;;;;;4038675;29;20188;-89
2023/08/06 01:03:51;;;;;;;6.45;3.50;;;16.60;99.90;;;;;;4023297;29;20232;-91
2023/08/06 01:05:51;;;;;;;5.03;3.00;;;16.50;99.90;;;;;;4023448;29;20597;-92
2023/08/06 01:08:22;;;;;;;6.97;2.85;;;16.60;99.90;;;;;;4023554;29;20193;-93
2023/08/06 01:10:28;;;;;;;4.05;2.85;;;16.60;99.90;;;;;;4023604;29;20245;-92
2023/08/06 01:12:46;;;;;;;7.00;3.00;;;16.70;99.90;;;;;;4038689;29;20272;-92
2023/08/06 01:14:49;;;;;;;7.35;3.15;;;16.90;99.90;;;;;;4022970;29;20547;-92
2023/08/06 01:16:51;;;;;;;3.42;2.55;;;16.60;99.90;;;;;;4038606;29;20659;-92
2023/08/06 01:18:52;;;;;;;5.07;2.25;;;16.60;99.90;;;;;;4023301;29;20187;-91
2023/08/06 01:20:53;;;;;;;4.00;2.00;;;16.60;99.90;;;;;;4038734;29;20674;-91
2023/08/06 01:22:54;;;;;;;3.35;1.77;;;16.50;99.90;;;;;;4022660;29;20676;-90
2023/08/06 01:24:55;;;;;;;3.63;1.70;;;16.30;99.90;;;;;;4038668;29;20197;-92
2023/08/06 01:27:08;;;;;;;5.57;1.77;;;16.30;99.90;;;;;;4023265;29;20548;-91
2023/08/06 01:29:39;;;;;;;5.55;1.48;;;16.30;99.90;;;;;;4038196;29;20208;-91
2023/08/06 01:31:43;;;;;;;3.03;1.50;;;16.20;99.90;;;;;;4038666;29;20197;-92
2023/08/06 01:33:45;;;;;;;2.65;1.10;;;16.30;99.90;;;;;;4022781;29;20223;-91
2023/08/06 01:35:48;;;;;;;4.72;1.10;;;16.50;99.90;;;;;;4022806;29;20257;-92
2023/08/06 01:37:49;;;;;;;3.95;0.85;;;16.70;99.90;;;;;;4022807;29;20190;-92
2023/08/06 01:39:50;;;;;;;1.35;0.63;;;17.00;99.90;;;;;;4038482;29;20703;-91
2023/08/06 01:41:50;;;;;;;4.53;0.80;;;17.00;99.90;;;;;;4022582;29;20262;-92
2023/08/06 01:43:51;;;;;;;4.75;0.85;;;17.00;99.90;;;;;;4022620;29;20190;-91
2023/08/06 01:45:52;;;;;;;4.00;0.93;;;17.00;99.90;;;;;;4022617;29;20532;-90
2023/08/06 01:47:53;;;;;;;4.75;1.30;;;16.70;99.90;;;;;;4038156;29;20194;-90
2023/08/06 01:49:53;;;;;;;0.80;0.55;;;16.70;99.90;;;;;;4022576;29;20374;-91
2023/08/06 01:51:54;;;;;;;4.80;0.88;;;16.60;99.90;;;;;;4022657;29;20206;-91
2023/08/06 01:53:55;;;;;;;2.67;0.60;;;16.60;99.90;;;;;;4022665;29;20178;-90
2023/08/06 01:55:56;;;;;;;1.98;0.80;;;16.50;99.90;;;;;;4038021;29;20193;-92
2023/08/06 01:57:56;;;;;;;4.50;0.75;;;16.60;99.90;;;;;;4053340;29;20269;-91
2023/08/06 01:59:58;;;;;;;4.85;0.50;;;16.80;99.90;;;;;;4022559;29;20206;-91
2023/08/06 02:01:59;;;;;;;2.03;0.57;;;16.80;99.90;;;;;;4022324;29;20222;-91
2023/08/06 02:04:00;;;;;;;1.50;0.50;;;16.70;99.90;;;;;;4022438;29;20194;-91
2023/08/06 02:06:00;;;;;;;2.97;0.57;;;16.50;99.90;;;;;;4038065;29;20596;-91
2023/08/06 02:08:01;;;;;;;2.88;0.85;;;16.40;99.90;;;;;;4022676;29;20281;-90
2023/08/06 02:10:03;;;;;;;2.25;0.40;;;16.50;99.90;;;;;;4038014;29;20233;-91
2023/08/06 02:12:04;;;;;;;1.00;0.40;;;16.60;99.90;;;;;;4022468;29;20300;-91
2023/08/06 02:14:05;;;;;;;1.60;0.63;;;16.70;99.90;;;;;;4037699;29;20193;-91
2023/08/06 02:16:08;;;;;;;2.60;0.50;;;16.70;99.90;;;;;;4037608;29;20186;-91
2023/08/06 02:18:10;;;;;;;0.88;0.50;;;16.70;99.90;;;;;;4022360;29;20190;-89
2023/08/06 02:20:11;;;;;;;2.85;0.60;;;16.70;99.90;;;;;;4022327;29;20212;-91
2023/08/06 02:22:12;;;;;;;4.05;0.85;;;16.80;99.90;;;;;;4037965;29;20251;-91
2023/08/06 02:24:12;;;;;;;5.40;0.70;;;16.70;99.90;;;;;;4022284;29;20188;-91
2023/08/06 02:26:13;;;;;;;2.85;0.90;;;16.70;99.90;;;;;;4037776;29;20185;-90
2023/08/06 02:28:14;;;;;;;2.95;1.00;;;16.90;99.90;;;;;;4022400;29;20194;-91
2023/08/06 02:30:15;;;;;;;2.60;1.40;;;16.70;99.90;;;;;;4037493;29;20340;-91
2023/08/06 02:32:15;;;;;;;3.85;1.10;;;16.60;99.90;;;;;;4022177;29;20192;-91
2023/08/06 02:34:16;;;;;;;2.03;1.20;;;16.60;99.90;;;;;;4022162;29;20186;-91
2023/08/06 02:36:17;;;;;;;2.35;1.27;;;16.70;99.90;;;;;;4022129;29;20194;-90
2023/08/06 02:38:18;;;;;;;4.68;1.30;;;16.70;99.90;;;;;;4022201;29;20186;-91
2023/08/06 02:40:18;;;;;;;2.97;1.85;;;16.70;99.90;;;;;;4022114;29;20206;-91
2023/08/06 02:42:19;;;;;;;4.68;2.22;;;16.50;99.90;;;;;;4022099;29;20192;-89
2023/08/06 02:44:20;;;;;;;4.90;2.97;;;16.50;99.90;;;;;;4037558;29;20188;-90
2023/08/06 02:46:21;;;;;;;5.63;3.25;;;16.60;99.90;;;;;;4052882;29;20220;-90
2023/08/06 02:48:21;;;;;;;7.90;4.85;;;16.70;99.90;;;;;;4022083;29;20186;-91
2023/08/06 02:50:22;;;;;;;8.68;5.18;;;16.60;99.90;;;;;;4021757;29;20228;-90
2023/08/06 02:52:23;;;;;;;8.60;4.65;;;16.60;99.90;;;;;;4022398;29;20195;-90
2023/08/06 02:54:24;;;;;;;10.40;5.47;;;16.60;99.90;;;;;;4037418;29;20190;-91
2023/08/06 02:56:26;;;;;;;9.45;4.60;;;16.60;99.90;;;;;;4037327;29;20276;-90
2023/08/06 02:58:44;;;;;;;7.18;4.53;;;16.70;99.90;;;;;;4024240;29;20197;-92
2023/08/06 03:01:04;;;;;;;7.60;3.35;;;16.70;99.90;;;;;;4037558;29;20200;-90
2023/08/06 03:03:07;;;;;;;4.35;2.95;;;16.70;99.90;;;;;;4022212;29;20209;-90
2023/08/06 03:05:17;;;;;;;2.17;1.50;;;16.60;99.90;;;;;;4022967;29;20196;-90
2023/08/06 03:07:20;;;;;;;2.25;1.10;;;16.40;99.90;;;;;;4037466;29;20254;-91
2023/08/06 03:09:28;;;;;;;0.63;0.60;;;16.40;99.90;;;;;;4022657;29;20201;-90
2023/08/06 03:11:29;;;;;;;3.15;0.88;;;16.40;99.90;;;;;;4021828;29;20190;-90
2023/08/06 03:13:36;;;;;;;0.90;0.70;;;16.40;99.90;;;;;;4037462;29;20188;-89
2023/08/06 03:15:37;;;;;;;2.30;0.60;;;16.20;99.90;;;;;;4021546;29;20575;-90
2023/08/06 03:17:38;;;;;;;3.33;0.60;;;16.10;99.90;;;;;;4037175;29;20185;-90
2023/08/06 03:19:40;;;;;;;2.30;0.70;;;16.20;99.90;;;;;;4022009;29;20228;-91
2023/08/06 03:21:41;;;;;;;0.93;0.50;;;16.10;99.90;;;;;;4021978;29;20273;-91
2023/08/06 03:23:42;;;;;;;1.85;0.65;;;16.10;99.90;;;;;;4052576;29;20181;-90
2023/08/06 03:25:44;;;;;;;1.75;0.68;;;16.20;99.90;;;;;;4021803;29;20279;-92
2023/08/06 03:27:47;;;;;;;3.05;0.90;;;16.30;99.90;;;;;;4053912;29;20208;-92
2023/08/06 03:29:50;;;;;;;1.33;0.68;;;16.20;99.90;;;;;;4022059;29;20261;-92
2023/08/06 03:31:52;;;;;;;2.10;0.90;;;15.90;99.90;;;;;;4052693;29;20229;-92
2023/08/06 03:33:53;;;;;;;3.40;1.02;;;15.90;99.90;;;;;;4052578;29;20188;-90
2023/08/06 03:35:59;;;;;;;1.50;1.00;;;15.80;99.90;;;;;;4022523;29;20552;-88
2023/08/06 03:38:00;;;;;;;2.08;1.10;;;15.70;99.90;;;;;;4052697;29;20226;-91
2023/08/06 03:40:03;;;;;;;2.47;1.15;;;15.60;99.90;;;;;;4021750;29;20202;-90
2023/08/06 03:42:05;;;;;;;1.38;1.10;;;15.60;99.90;;;;;;4022276;29;20668;-92
2023/08/06 03:44:06;;;;;;;3.88;1.20;;;15.60;99.90;;;;;;4036955;29;20186;-90
2023/08/06 03:46:07;;;;;;;2.92;1.38;;;15.60;99.90;;;;;;4037803;29;20242;-89
2023/08/06 03:48:09;;;;;;;1.40;0.77;;;15.70;99.90;;;;;;4024504;29;20178;-88
2023/08/06 03:50:10;;;;;;;2.55;1.00;;;15.50;99.90;;;;;;4039901;29;20230;-91
2023/08/06 03:52:11;;;;;;;2.95;0.95;;;15.60;99.90;;;;;;4024545;29;20205;-90
2023/08/06 03:54:12;;;;;;;4.90;1.40;;;15.40;99.90;;;;;;4039774;29;20194;-90
2023/08/06 03:56:12;;;;;;;2.45;1.10;;;15.40;99.90;;;;;;4055404;29;20208;-89
2023/08/06 03:58:14;;;;;;;1.83;1.00;;;15.50;99.90;;;;;;4024270;29;20272;-90
2023/08/06 04:00:14;;;;;;;2.28;1.20;;;15.60;99.90;;;;;;4024257;29;20211;-92
2023/08/06 04:02:26;;;;;;;8.73;1.65;;;15.50;99.90;;;;;;4025419;29;20719;-87
2023/08/06 04:04:26;;;;;;;3.63;1.17;;;15.60;99.90;;;;;;4039510;29;20269;-90
2023/08/06 04:06:27;;;;;;;3.65;1.40;;;15.70;99.90;;;;;;4039481;29;20193;-90
2023/08/06 04:08:28;;;;;;;3.25;1.27;;;15.70;99.90;;;;;;4024192;29;20186;-90
2023/08/06 04:10:29;;;;;;;3.50;1.30;;;15.60;99.90;;;;;;4023956;29;20320;-91
2023/08/06 04:12:30;;;;;;;2.30;1.50;;;15.50;99.90;;;;;;4024144;29;20175;-90
2023/08/06 04:14:31;;;;;;;3.63;1.60;;;15.40;99.90;;;;;;4039420;29;20288;-87
2023/08/06 04:16:32;;;;;;;3.88;1.50;;;15.30;99.90;;;;;;4039487;29;20178;-91
2023/08/06 04:18:32;;;;;;;2.45;1.50;;;15.30;99.90;;;;;;4039392;29;20227;-88
2023/08/06 04:20:33;;;;;;;3.83;1.33;;;15.40;99.90;;;;;;4024124;29;20210;-88
2023/08/06 04:22:34;;;;;;;3.20;1.83;;;15.40;99.90;;;;;;4024038;29;20190;-90
2023/08/06 04:24:35;;;;;;;3.50;1.58;;;15.40;99.90;;;;;;4039275;29;20578;-91
2023/08/06 04:26:35;;;;;;;4.18;1.80;;;15.30;99.90;;;;;;4039156;29;20201;-90
2023/08/06 04:28:36;;;;;;;2.70;1.60;;;15.20;99.90;;;;;;4023940;29;20202;-91
2023/08/06 04:30:37;;;;;;;5.13;1.58;;;15.20;99.90;;;;;;4038922;29;20250;-89
2023/08/06 04:32:39;;;;;;;4.07;1.73;;;15.30;99.90;;;;;;4023914;29;20182;-88
2023/08/06 04:34:41;;;;;;;3.35;1.80;;;15.40;99.90;;;;;;4039182;29;20242;-90
2023/08/06 04:36:42;;;;;;;5.47;1.77;;;15.40;99.90;;;;;;4023779;29;20190;-90
2023/08/06 04:38:47;;;;;;;3.28;1.70;;;15.30;99.90;;;;;;4039283;29;20194;-91
2023/08/06 04:40:49;;;;;;;4.35;2.17;;;15.30;99.90;;;;;;4054489;29;20208;-89
2023/08/06 04:42:50;;;;;;;6.88;2.60;;;15.30;99.90;;;;;;4024017;29;20193;-89
2023/08/06 04:44:51;;;;;;;3.80;2.22;;;15.20;99.90;;;;;;4054544;29;20228;-91
2023/08/06 04:46:52;;;;;;;8.07;2.75;;;15.30;99.90;;;;;;4054237;29;20241;-90
2023/08/06 04:48:52;;;;;;;6.03;2.63;;;15.40;99.90;;;;;;4023682;29;20197;-90
2023/08/06 04:50:54;;;;;;;5.35;2.35;;;15.20;99.90;;;;;;4038939;29;20233;-88
2023/08/06 04:52:55;;;;;;;5.78;2.28;;;15.20;99.90;;;;;;4038836;29;20184;-92
2023/08/06 04:54:55;;;;;;;5.72;2.00;;;15.20;99.90;;;;;;4054698;29;20196;-91
2023/08/06 04:56:56;;;;;;;1.85;1.40;;;15.20;99.90;;;;;;4023194;29;20198;-91
2023/08/06 04:58:57;;;;;;;6.72;1.83;;;15.20;99.90;;;;;;4022471;29;20281;-90
2023/08/06 05:00:58;;;;;;;6.75;1.90;;;15.30;99.90;;;;;;4023300;29;20186;-91
2023/08/06 05:03:01;;;;;;;3.17;1.50;;;15.30;99.90;;;;;;4038715;29;20216;-90
2023/08/06 05:05:02;;;;;;;3.70;1.60;;;15.20;99.90;;;;;;4054218;29;20275;-92
2023/08/06 05:07:05;;;;;;;2.53;1.63;;;15.20;99.90;;;;;;4023642;29;20258;-90
2023/08/06 05:09:06;;;;;;;5.97;1.55;;;15.20;99.90;;;;;;4038961;29;20210;-91
2023/08/06 05:11:06;;;;;;;2.45;1.40;;;15.40;99.90;;;;;;4023415;29;20222;-93
2023/08/06 05:13:07;;;;;;;3.35;1.45;;;15.50;99.90;;;;;;4023003;29;20186;-90
2023/08/06 05:15:08;;;;;;;5.30;1.70;;;15.70;99.90;;;;;;4023204;29;20322;-91
2023/08/06 05:17:09;;;;;;;5.53;1.25;;;15.70;99.90;;;;;;4023160;29;20563;-90
2023/08/06 05:19:10;;;;;;;5.22;1.60;;;15.70;99.90;;;;;;4023127;29;20198;-89
2023/08/06 05:21:11;;;;;;;5.07;1.73;;;15.70;99.90;;;;;;4038550;29;20177;-91
2023/08/06 05:23:11;;;;;;;2.45;1.30;;;15.60;99.90;;;;;;4053962;29;20693;-92
2023/08/06 05:25:14;;;;;;;3.22;1.38;;;15.50;99.90;;;;;;4023007;29;20182;-91
2023/08/06 05:27:15;;;;;;;5.60;1.20;;;15.50;99.90;;;;;;4023393;29;20640;-90
2023/08/06 05:29:16;;;;;;;4.82;1.27;;;15.60;99.90;;;;;;4022713;29;20312;-91
2023/08/06 05:31:17;;;;;;;4.55;1.02;;;15.70;99.90;;;;;;4038170;29;20673;-93
2023/08/06 05:33:18;;;;;;;2.88;1.35;;;15.70;99.90;;;;;;4023129;29;20189;-90
2023/08/06 05:35:19;;;;;;;5.82;1.52;;;15.70;99.90;;;;;;4023072;29;20190;-89
2023/08/06 05:37:20;;;;;;;3.40;1.30;;;15.80;99.90;;;;;;4022999;29;20186;-91
2023/08/06 05:39:21;;;;;;;4.53;1.20;;;15.80;99.90;;;;;;4038186;29;20210;-89
2023/08/06 05:41:21;;;;;;;4.47;1.30;;;15.70;99.90;;;;;;4053832;29;20256;-92
2023/08/06 05:43:22;;;;;;;3.58;1.30;;;15.80;99.90;;;;;;4023072;29;20190;-90
2023/08/06 05:45:23;;;;;;;4.45;1.60;;;15.80;99.90;;;;;;4022812;29;20652;-92
2023/08/06 05:47:24;;;;;;;6.63;1.40;;;15.70;99.90;;;;;;4038102;29;20205;-90
2023/08/06 05:49:25;;;;;;;2.80;1.40;;;15.60;99.90;;;;;;4022480;29;20729;-91
2023/08/06 05:51:26;;;;;;;4.43;1.50;;;15.80;99.90;;;;;;4022586;29;20255;-91
2023/08/06 05:53:27;;;;;;;4.93;1.35;;;15.80;99.90;;;;;;4022591;29;20178;-91
2023/08/06 05:55:28;;;;;;;4.78;1.73;;;15.70;99.90;;;;;;4022586;29;20202;-92
2023/08/06 05:57:29;;;;;;;2.70;1.30;;;15.50;99.90;;;;;;4022651;29;20227;-91
2023/08/06 05:59:29;;;;;;;5.72;1.63;;;15.70;99.90;;;;;;4022491;29;20206;-92
2023/08/06 06:01:30;;;;;;;3.35;1.35;;;15.70;99.90;;;;;;4038060;29;20185;-91
2023/08/06 06:03:31;;;;;;;4.85;1.40;;;15.80;99.90;;;;;;4038076;29;20654;-91
2023/08/06 06:05:32;;;;;;;5.18;1.60;;;16.00;99.90;;;;;;4022606;29;20289;-91
2023/08/06 06:07:33;;;;;;;4.05;1.70;;;16.20;99.90;;;;;;4053310;29;20303;-92
2023/08/06 06:09:33;;;;;;;3.90;1.67;;;16.20;99.90;;;;;;4022207;29;20206;-91
2023/08/06 06:11:34;;;;;;;9.52;1.63;;;16.40;99.90;;;;;;4022608;29;20301;-91
2023/08/06 06:13:35;;;;;;;2.92;1.50;;;16.40;99.90;;;;;;4022416;29;20572;-91
2023/08/06 06:15:36;;;;;;;5.20;1.42;;;16.50;99.90;;;;;;4037898;29;20197;-92
2023/08/06 06:17:36;;;;;;;8.43;1.70;;;16.60;99.90;;;;;;4022438;29;20625;-91
2023/08/06 06:19:37;;;;;;;6.82;2.22;;;16.70;99.90;;;;;;4022786;29;20209;-90
2023/08/06 06:21:38;;;;;;;7.95;1.80;;;16.60;99.90;;;;;;4022396;29;20269;-91
2023/08/06 06:23:39;;;;;;;3.72;1.63;;;16.40;99.90;;;;;;4037604;29;20189;-89
2023/08/06 06:25:46;;;;;;;4.82;1.80;;;16.40;99.90;;;;;;4022252;29;20238;-91
2023/08/06 06:27:47;;;;;;;4.25;1.27;;;16.40;99.90;;;;;;4022394;29;20194;-91
2023/08/06 06:29:48;;;;;;;6.88;1.67;;;16.40;99.90;;;;;;4021992;29;20658;-92
2023/08/06 06:31:48;;;;;;;3.53;1.38;;;16.60;99.90;;;;;;4022091;29;20277;-91
2023/08/06 06:33:49;;;;;;;5.10;1.60;;;16.60;99.90;;;;;;4022296;29;20281;-91
2023/08/06 06:35:50;;;;;;;5.57;1.90;;;16.70;99.90;;;;;;4037650;29;20262;-89
2023/08/06 06:37:51;;;;;;;4.32;1.27;;;16.60;99.90;;;;;;4022322;29;20182;-91
2023/08/06 06:39:52;;;;;;;5.68;1.23;;;16.50;99.90;;;;;;4022043;29;20209;-92
2023/08/06 06:41:53;;;;;;;4.63;1.67;;;16.40;99.90;;;;;;4022099;29;20186;-91
2023/08/06 06:44:00;;;;;;;6.38;1.15;;;16.20;99.90;;;;;;4023073;29;20186;-91
2023/08/06 06:46:01;;;;;;;2.83;1.10;;;16.20;99.90;;;;;;4037435;29;20192;-91
2023/08/06 06:48:02;;;;;;;4.80;1.00;;;16.10;99.90;;;;;;4037308;29;20192;-91
2023/08/06 06:50:03;;;;;;;3.97;0.85;;;16.00;99.90;;;;;;4021960;29;20282;-92
2023/08/06 06:52:04;;;;;;;4.10;1.00;;;15.90;99.90;;;;;;4022244;29;20194;-90
2023/08/06 06:54:05;;;;;;;2.58;0.88;;;15.90;99.90;;;;;;4037768;29;20174;-92
2023/08/06 06:56:06;;;;;;;3.22;1.00;;;16.00;99.90;;;;;;4037293;29;20591;-92
2023/08/06 06:58:06;;;;;;;5.13;1.15;;;16.00;99.90;;;;;;4022388;29;20214;-91
2023/08/06 07:00:07;;;;;;;3.05;0.95;;;16.10;99.90;;;;;;4021877;29;20572;-92
2023/08/06 07:02:08;;;;;;;5.82;1.33;;;16.20;99.90;;;;;;4022035;29;20182;-91
2023/08/06 07:04:09;;;;;;;1.80;0.55;;;16.30;99.90;;;;;;4037534;29;20225;-89
2023/08/06 07:06:10;;;;;;;6.22;1.15;;;16.30;99.90;;;;;;4022038;29;20205;-93
2023/08/06 07:08:11;;;;;;;1.63;0.47;;;16.30;99.90;;;;;;4037370;29;20566;-90
2023/08/06 07:10:12;;;;;;;4.22;0.88;;;16.20;99.90;;;;;;4021752;29;20254;-88
2023/08/06 07:12:13;;;;;;;6.18;0.70;;;16.10;99.90;;;;;;4037280;29;20254;-89
2023/08/06 07:14:14;;;;;;;2.13;0.77;;;15.90;99.90;;;;;;4021977;29;20222;-93
2023/08/06 07:16:15;;;;;;;7.20;0.75;;;15.80;99.90;;;;;;4037605;29;20196;-90
2023/08/06 07:18:16;;;;;;;4.45;0.50;;;15.80;99.90;;;;;;4022023;29;20393;-89
2023/08/06 07:20:16;;;;;;;6.75;1.10;;;15.80;99.90;;;;;;4021798;29;20234;-89
2023/08/06 07:22:17;;;;;;;2.13;0.60;;;15.90;99.90;;;;;;4024432;29;20701;-93
2023/08/06 07:24:18;;;;;;;5.85;0.93;;;15.90;99.90;;;;;;4024995;29;20198;-90
2023/08/06 07:26:19;;;;;;;4.60;0.70;;;15.90;99.90;;;;;;4055493;29;20181;-90
2023/08/06 07:28:19;;;;;;;5.72;0.60;;;15.80;99.90;;;;;;4024677;29;20194;-89
2023/08/06 07:30:20;;;;;;;4.38;0.55;;;15.90;99.90;;;;;;4055504;29;20216;-91
2023/08/06 07:32:21;;;;;;;3.15;0.95;;;16.00;99.90;;;;;;4040303;29;20203;-89
2023/08/06 07:34:22;;;;;;;3.17;0.75;;;16.30;99.90;;;;;;4024634;29;20186;-90
2023/08/06 07:36:23;;;;;;;3.63;0.80;;;16.50;99.90;;;;;;4039969;29;20697;-92
2023/08/06 07:38:23;;;;;;;2.00;0.50;;;16.80;99.90;;;;;;4024810;29;20659;-91
2023/08/06 07:40:24;;;;;;;2.58;0.55;;;16.70;99.90;;;;;;4024427;29;20734;-92
2023/08/06 07:42:25;;;;;;;4.25;0.77;;;16.60;99.90;;;;;;4039939;29;20189;-92
2023/08/06 07:44:26;;;;;;;5.60;1.08;;;16.70;99.90;;;;;;4040060;29;20197;-89
2023/08/06 07:46:27;;;;;;;3.53;0.80;;;16.70;99.90;;;;;;4024614;29;20644;-92
2023/08/06 07:48:28;;;;;;;3.88;0.88;;;16.70;99.90;;;;;;4024647;29;20183;-91
2023/08/06 07:50:29;;;;;;;6.20;0.82;;;16.90;99.90;;;;;;4024655;29;20230;-89
2023/08/06 07:52:30;;;;;;;2.30;0.80;;;17.40;99.90;;;;;;4039965;29;20674;-90
2023/08/06 07:54:30;;;;;;;8.35;1.10;;;17.80;99.90;;;;;;4039935;29;20201;-89
2023/08/06 07:56:31;;;;;;;2.95;0.85;;;18.00;99.90;;;;;;4024753;29;20269;-93
2023/08/06 07:58:32;;;;;;;13.32;1.05;;;18.10;99.90;;;;;;4039694;29;20178;-89
2023/08/06 08:00:33;;;;;;;3.45;0.75;;;17.70;99.90;;;;;;4024154;29;20210;-90
2023/08/06 08:02:34;;;;;;;4.30;0.80;;;17.40;99.90;;;;;;4024533;29;20187;-90
2023/08/06 08:04:34;;;;;;;5.65;1.30;;;17.40;99.90;;;;;;4055131;29;20181;-92
2023/08/06 08:06:35;;;;;;;3.80;0.80;;;17.40;99.90;;;;;;4024338;29;20210;-88
2023/08/06 08:08:38;;;;;;;2.90;0.50;;;17.60;99.90;;;;;;4055038;29;20184;-90
2023/08/06 08:10:39;;;;;;;4.22;0.75;;;17.50;99.90;;;;;;4023881;29;20218;-90
2023/08/06 08:12:40;;;;;;;2.15;0.60;;;17.20;99.90;;;;;;4039739;29;20194;-89
2023/08/06 08:14:41;;;;;;;5.50;0.77;;;17.20;99.90;;;;;;4024315;29;20570;-92
2023/08/06 08:16:42;;;;;;;7.18;0.63;;;17.10;99.90;;;;;;4054876;29;20180;-89
2023/08/06 08:18:43;;;;;;;2.05;0.45;;;16.90;99.90;;;;;;4024250;29;20194;-89
2023/08/06 08:20:44;;;;;;;2.00;0.60;;;16.70;99.90;;;;;;4024167;29;20249;-89
2023/08/06 08:22:45;;;;;;;3.88;0.60;;;16.60;99.90;;;;;;4024101;29;20182;-91
2023/08/06 08:24:45;;;;;;;6.43;0.70;;;16.70;99.90;;;;;;4039442;29;20190;-92
2023/08/06 08:26:46;;;;;;;4.93;0.80;;;16.90;99.90;;;;;;4023825;29;20226;-91
2023/08/06 08:28:47;;;;;;;4.05;0.75;;;17.00;99.90;;;;;;4023969;29;20298;-92
2023/08/06 08:30:47;;;;;;;3.63;0.68;;;17.10;99.90;;;;;;4023477;29;20299;-91
2023/08/06 08:32:49;;;;;;;3.00;0.60;;;17.40;99.90;;;;;;4054489;29;20276;-93
2023/08/06 08:34:50;;;;;;;4.40;0.70;;;17.50;99.90;;;;;;4039090;29;20188;-89
2023/08/06 08:36:50;;;;;;;2.05;0.52;;;17.40;99.90;;;;;;4039164;29;20186;-91
2023/08/06 08:38:53;;;;;;;4.07;0.85;;;17.40;99.90;;;;;;4023658;29;20680;-92
2023/08/06 08:40:54;;;;;;;4.65;1.20;;;17.30;99.90;;;;;;4023451;29;20691;-89
2023/08/06 08:42:56;;;;;;;4.00;0.70;;;17.30;99.90;;;;;;4023895;29;20652;-91
2023/08/06 08:44:57;;;;;;;3.35;0.50;;;17.30;99.90;;;;;;4039163;29;20189;-95
2023/08/06 08:46:58;;;;;;;2.28;0.88;;;17.30;99.90;;;;;;4023623;29;20179;-89
2023/08/06 08:49:00;;;;;;;3.70;0.90;;;17.20;99.90;;;;;;4038952;29;20204;-90
2023/08/06 08:51:02;;;;;;;1.40;0.60;;;17.10;99.90;;;;;;4039066;29;20217;-92
2023/08/06 08:53:04;;;;;;;4.18;0.98;;;17.30;99.90;;;;;;4038903;29;20217;-92
2023/08/06 08:55:06;;;;;;;5.50;0.70;;;17.20;99.90;;;;;;4023578;29;20186;-93
2023/08/06 08:57:07;;;;;;;4.70;0.70;;;17.20;99.90;;;;;;4039101;29;20190;-94
2023/08/06 08:59:08;;;;;;;3.22;0.60;;;17.20;99.90;;;;;;4023535;29;20544;-89
2023/08/06 09:01:10;;;;;;;2.95;0.60;;;17.10;99.90;;;;;;4023495;29;20226;-89
2023/08/06 09:03:10;;;;;;;7.80;0.70;;;17.10;99.90;;;;;;4023399;29;20273;-91
2023/08/06 09:05:12;;;;;;;3.83;0.95;;;17.10;99.90;;;;;;4038835;29;20651;-89
2023/08/06 09:07:18;;;;;;;6.50;1.02;;;17.20;99.90;;;;;;4023353;29;20175;-89
2023/08/06 09:09:28;;;;;;;3.45;0.75;;;17.30;99.90;;;;;;4023448;29;20297;-91
2023/08/06 09:11:38;;;;;;;3.75;0.75;;;17.30;99.90;;;;;;4023495;29;20291;-90
2023/08/06 09:13:39;;;;;;;4.38;1.00;;;17.20;99.90;;;;;;4023092;29;20213;-91
2023/08/06 09:15:39;;;;;;;5.50;0.60;;;17.10;99.90;;;;;;4023075;29;20190;-90
2023/08/06 09:17:40;;;;;;;5.93;0.88;;;17.30;99.90;;;;;;4023089;29;20178;-89
2023/08/06 09:19:45;;;;;;;4.35;0.80;;;17.30;99.90;;;;;;4038459;29;20563;-89
2023/08/06 09:21:49;;;;;;;4.47;1.05;;;17.30;99.90;;;;;;4038806;29;20230;-90
2023/08/06 09:23:50;;;;;;;1.83;0.60;;;17.10;99.90;;;;;;4023337;29;20190;-89
2023/08/06 09:25:51;;;;;;;9.23;1.25;;;17.20;99.90;;;;;;4038457;29;20189;-89
2023/08/06 09:27:52;;;;;;;5.47;1.10;;;17.10;99.90;;;;;;4023505;29;20209;-89
2023/08/06 09:29:52;;;;;;;2.80;0.85;;;16.90;99.90;;;;;;4022858;29;20714;-89
2023/08/06 09:31:53;;;;;;;2.88;0.50;;;16.70;99.90;;;;;;4038169;29;20280;-92
2023/08/06 09:33:54;;;;;;;3.05;0.90;;;16.70;99.90;;;;;;4022883;29;20193;-93
2023/08/06 09:35:55;;;;;;;3.95;0.63;;;16.50;99.90;;;;;;4022947;29;20307;-89
2023/08/06 09:38:07;;;;;;;3.70;0.77;;;16.50;99.90;;;;;;4023337;29;20643;-90
2023/08/06 09:40:32;;;;;;;2.10;0.52;;;16.60;99.90;;;;;;4022954;29;20209;-92
2023/08/06 09:42:36;;;;;;;5.53;0.80;;;16.70;99.90;;;;;;4038379;29;20243;-88
2023/08/06 09:44:41;;;;;;;8.32;1.40;;;16.70;99.90;;;;;;4022224;29;20210;-90
2023/08/06 09:46:41;;;;;;;3.85;0.75;;;16.60;99.90;;;;;;4022945;29;20281;-92
2023/08/06 09:48:46;;;;;;;4.97;0.68;;;16.60;99.90;;;;;;4038009;29;20184;-91
2023/08/06 09:50:48;;;;;;;2.63;0.80;;;16.80;99.90;;;;;;4022607;29;20230;-93
2023/08/06 09:52:50;;;;;;;2.13;0.50;;;17.00;99.90;;;;;;4023003;29;20203;-91
2023/08/06 09:54:52;;;;;;;3.50;0.60;;;17.00;99.90;;;;;;4038108;29;20189;-92
2023/08/06 09:56:54;;;;;;;4.32;0.75;;;17.20;99.90;;;;;;4022840;29;20773;-92
2023/08/06 09:58:56;;;;;;;3.00;0.82;;;17.10;99.90;;;;;;4038002;29;20190;-89
2023/08/06 10:00:57;;;;;;;2.78;0.70;;;17.30;99.90;;;;;;4037847;29;20547;-89
2023/08/06 10:03:00;;;;;;;3.20;0.47;;;17.10;99.90;;;;;;4023156;29;20194;-89
2023/08/06 10:05:02;;;;;;;5.72;0.82;;;17.00;99.90;;;;;;4022534;29;20178;-94
2023/08/06 10:07:04;;;;;;;3.47;0.80;;;17.00;99.90;;;;;;4022677;29;20186;-88
2023/08/06 10:09:05;;;;;;;6.63;1.08;;;17.00;99.90;;;;;;4022590;29;20227;-91
2023/08/06 10:11:06;;;;;;;4.05;0.80;;;17.10;99.90;;;;;;4037824;29;20725;-89
2023/08/06 10:13:08;;;;;;;3.38;0.80;;;17.10;99.90;;;;;;4022596;29;20178;-92
2023/08/06 10:15:15;;;;;;;6.80;0.93;;;17.20;99.90;;;;;;4022254;29;20201;-90
2023/08/06 10:17:16;;;;;;;6.22;1.02;;;17.40;99.90;;;;;;4022600;29;20194;-90
2023/08/06 10:19:18;;;;;;;7.63;0.90;;;17.40;99.90;;;;;;4022196;29;20305;-89
2023/08/06 10:21:21;;;;;;;4.25;1.10;;;17.30;99.90;;;;;;4022393;29;20186;-88
2023/08/06 10:23:35;;;;;;;1.67;0.68;;;17.00;99.90;;;;;;4022150;29;20182;-89
2023/08/06 10:25:41;;;;;;;3.17;0.70;;;17.00;99.90;;;;;;4022402;29;20178;-88
2023/08/06 10:27:53;;;;;;;4.20;0.80;;;16.90;99.90;;;;;;4037520;29;20289;-94
2023/08/06 10:29:54;;;;;;;4.07;0.80;;;16.70;99.90;;;;;;4022189;29;20214;-88
2023/08/06 10:32:00;;;;;;;6.65;0.88;;;16.60;99.90;;;;;;4022325;29;20285;-92
2023/08/06 10:34:00;;;;;;;2.28;0.80;;;16.60;99.90;;;;;;4022119;29;20232;-91
2023/08/06 10:36:04;;;;;;;5.53;1.15;;;16.60;99.90;;;;;;4037620;29;20197;-92